Terminal Aerodrome Forecast
Issued by NWS

Home | Current Version | Previous Version | Text Only | Print | Product List | Glossary On
Versions: 1 2 3 4 5 6 7 8 9 10 11 12 13 14 15 16
000
FTUS44 KLIX 011700 RRA
TAFGPT
TAF
KGPT 011741Z 0118/0218 13007KT P6SM VCSH SCT020
     FM020000 15006KT P6SM BKN035
     FM021500 16007KT P6SM BKN030=

USA.gov is the U.S. government's official web portal to all federal, state and local government web resources and services.